createdAt,value
2022-09-05T00:00:03.190Z,1019.63
2022-09-05T00:01:03.187Z,1019.64
2022-09-05T00:02:03.221Z,1019.60
2022-09-05T00:03:03.365Z,1019.65
2022-09-05T00:04:08.366Z,1019.62
2022-09-05T00:05:03.212Z,1019.59
2022-09-05T00:06:03.610Z,1019.59
2022-09-05T00:07:03.207Z,1019.63
2022-09-05T00:08:03.200Z,1019.60
2022-09-05T00:09:03.243Z,1019.63
2022-09-05T00:10:03.204Z,1019.60
2022-09-05T00:11:42.520Z,1019.59
2022-09-05T00:12:03.232Z,1019.57
2022-09-05T00:13:07.874Z,1019.65
2022-09-05T00:14:03.238Z,1019.61
2022-09-05T00:15:16.998Z,1019.59
2022-09-05T00:16:03.301Z,1019.58
2022-09-05T00:17:03.231Z,1019.65
2022-09-05T00:21:22.764Z,1019.63
2022-09-05T00:24:18.944Z,1019.58
2022-09-05T00:24:20.153Z,1019.63
2022-09-05T00:24:20.596Z,1019.58
2022-09-05T00:24:28.312Z,1019.61
2022-09-05T00:24:30.243Z,1019.57
2022-09-05T00:24:42.059Z,1019.59
2022-09-05T00:26:03.289Z,1019.61
2022-09-05T00:27:03.256Z,1019.55
2022-09-05T00:28:14.580Z,1019.55
2022-09-05T00:29:03.277Z,1019.59
2022-09-05T00:31:07.223Z,1019.63
2022-09-05T00:31:08.561Z,1019.56
2022-09-05T00:32:03.371Z,1019.61
2022-09-05T00:33:03.309Z,1019.59
2022-09-05T00:34:03.283Z,1019.62
2022-09-05T00:35:03.299Z,1019.61
2022-09-05T00:36:03.288Z,1019.61
2022-09-05T00:37:03.300Z,1019.57
2022-09-05T00:38:03.313Z,1019.60
2022-09-05T00:39:03.293Z,1019.61
2022-09-05T00:40:17.731Z,1019.62
2022-09-05T00:41:03.312Z,1019.60
2022-09-05T00:42:03.308Z,1019.63
2022-09-05T00:43:03.342Z,1019.65
2022-09-05T00:44:03.325Z,1019.66
2022-09-05T00:45:03.316Z,1019.63
2022-09-05T00:46:03.386Z,1019.63
2022-09-05T00:47:03.320Z,1019.66
2022-09-05T00:48:03.349Z,1019.67
2022-09-05T00:49:03.335Z,1019.66
2022-09-05T00:50:03.330Z,1019.71
2022-09-05T00:51:03.346Z,1019.70
2022-09-05T00:52:03.338Z,1019.69
2022-09-05T00:53:06.485Z,1019.70
2022-09-05T00:54:03.373Z,1019.73
2022-09-05T00:55:03.362Z,1019.69
2022-09-05T00:56:03.355Z,1019.70
2022-09-05T00:57:03.362Z,1019.67
2022-09-05T00:58:03.370Z,1019.71
2022-09-05T00:59:03.380Z,1019.73
2022-09-05T01:00:03.378Z,1019.73
2022-09-05T01:01:03.379Z,1019.71
2022-09-05T01:02:03.479Z,1019.77
2022-09-05T01:03:03.487Z,1019.74
2022-09-05T01:04:04.943Z,1019.71
2022-09-05T01:05:03.416Z,1019.73
2022-09-05T01:06:03.387Z,1019.76
2022-09-05T01:07:03.391Z,1019.73
2022-09-05T01:08:03.386Z,1019.74
2022-09-05T01:09:08.040Z,1019.81
2022-09-05T01:10:03.399Z,1019.77
2022-09-05T01:11:03.408Z,1019.81
2022-09-05T01:12:03.413Z,1019.78
2022-09-05T01:13:03.407Z,1019.80
2022-09-05T01:14:03.433Z,1019.80
2022-09-05T01:15:03.423Z,1019.78
2022-09-05T01:16:03.458Z,1019.78
2022-09-05T01:17:03.432Z,1019.76
2022-09-05T01:18:03.412Z,1019.76
2022-09-05T01:19:03.427Z,1019.68
2022-09-05T01:20:18.588Z,1019.75
2022-09-05T01:21:03.423Z,1019.73
2022-09-05T01:22:03.449Z,1019.75
2022-09-05T01:23:08.362Z,1019.74
2022-09-05T01:24:03.455Z,1019.72
2022-09-05T01:25:03.437Z,1019.74
2022-09-05T01:26:03.440Z,1019.71
2022-09-05T01:27:03.436Z,1019.67
2022-09-05T01:28:47.579Z,1019.73
2022-09-05T01:29:16.104Z,1019.75
2022-09-05T01:30:03.457Z,1019.67
2022-09-05T01:31:03.470Z,1019.70
2022-09-05T01:32:03.460Z,1019.69
2022-09-05T01:33:06.023Z,1019.67
2022-09-05T01:34:03.477Z,1019.71
2022-09-05T01:35:03.472Z,1019.66
2022-09-05T01:36:04.541Z,1019.69
2022-09-05T01:37:03.466Z,1019.68
2022-09-05T01:38:03.491Z,1019.71
2022-09-05T01:40:12.499Z,1019.72
2022-09-05T01:40:14.756Z,1019.76
2022-09-05T01:41:18.710Z,1019.77
2022-09-05T01:42:03.471Z,1019.78
2022-09-05T01:43:03.475Z,1019.76
2022-09-05T01:44:03.474Z,1019.73
2022-09-05T01:45:03.521Z,1019.76
2022-09-05T01:46:03.516Z,1019.77
2022-09-05T01:47:03.511Z,1019.78
2022-09-05T01:48:03.485Z,1019.78
2022-09-05T01:49:03.515Z,1019.76
2022-09-05T01:50:03.491Z,1019.72
2022-09-05T01:51:03.513Z,1019.78
2022-09-05T01:52:03.494Z,1019.82
2022-09-05T01:53:05.461Z,1019.76
2022-09-05T01:54:03.504Z,1019.74
2022-09-05T01:55:11.316Z,1019.71
2022-09-05T01:56:05.609Z,1019.66
2022-09-05T01:57:03.511Z,1019.68
2022-09-05T01:58:03.528Z,1019.68
2022-09-05T01:59:03.520Z,1019.73
2022-09-05T02:00:03.521Z,1019.72
2022-09-05T02:01:25.332Z,1019.72
2022-09-05T02:02:03.589Z,1019.73
2022-09-05T02:03:03.581Z,1019.73
2022-09-05T02:04:04.526Z,1019.74
2022-09-05T02:05:03.527Z,1019.77
2022-09-05T02:06:03.538Z,1019.81
2022-09-05T02:07:19.967Z,1019.87
2022-09-05T02:08:03.544Z,1019.82
2022-09-05T02:09:03.535Z,1019.83
2022-09-05T02:10:03.546Z,1019.88
2022-09-05T02:11:03.543Z,1019.88
2022-09-05T02:12:03.548Z,1019.83
2022-09-05T02:13:03.639Z,1019.90
2022-09-05T02:14:03.558Z,1019.86
2022-09-05T02:15:03.548Z,1019.91
2022-09-05T02:16:03.587Z,1019.94
2022-09-05T02:17:03.565Z,1019.97
2022-09-05T02:18:03.559Z,1019.91
2022-09-05T02:19:03.574Z,1019.93
2022-09-05T02:20:03.581Z,1019.96
2022-09-05T02:21:03.564Z,1019.95
2022-09-05T02:22:03.571Z,1019.92
2022-09-05T02:23:03.579Z,1019.90
2022-09-05T02:24:03.586Z,1019.95
2022-09-05T02:26:01.963Z,1019.94
2022-09-05T02:26:03.806Z,1019.92
2022-09-05T02:27:03.576Z,1019.98
2022-09-05T02:28:06.052Z,1019.95
2022-09-05T02:29:03.601Z,1019.99
2022-09-05T02:30:03.598Z,1019.94
2022-09-05T02:31:19.069Z,1019.96
2022-09-05T02:32:03.607Z,1019.98
2022-09-05T02:33:03.605Z,1019.92
2022-09-05T02:34:03.625Z,1019.92
2022-09-05T02:35:03.631Z,1019.98
2022-09-05T02:36:03.596Z,1019.97
2022-09-05T02:37:03.605Z,1019.99
2022-09-05T02:40:53.508Z,1019.98
2022-09-05T02:43:51.862Z,1019.97
2022-09-05T02:45:03.484Z,1019.98
2022-09-05T02:45:06.686Z,1019.94
2022-09-05T02:45:08.932Z,1019.98
2022-09-05T02:45:16.343Z,1019.95
2022-09-05T02:45:17.001Z,1019.94
2022-09-05T02:45:24.407Z,1019.98
2022-09-05T02:46:03.701Z,1019.97
2022-09-05T02:47:03.658Z,1019.99
2022-09-05T02:48:09.664Z,1019.93
2022-09-05T02:49:07.753Z,1019.97
2022-09-05T02:55:03.342Z,1019.98
2022-09-05T02:57:23.785Z,1020.01
2022-09-05T02:57:26.917Z,1020.00
2022-09-05T02:57:34.202Z,1019.99
2022-09-05T02:57:36.696Z,1020.04
2022-09-05T02:57:38.341Z,1019.98
2022-09-05T02:57:46.894Z,1020.03
2022-09-05T02:58:05.967Z,1020.03
2022-09-05T02:58:07.990Z,1020.00
2022-09-05T02:59:10.078Z,1020.01
2022-09-05T03:00:03.664Z,1019.96
2022-09-05T03:01:03.728Z,1019.97
2022-09-05T03:02:17.321Z,1020.01
2022-09-05T03:03:03.774Z,1019.97
2022-09-05T03:04:03.681Z,1019.95
2022-09-05T03:05:05.031Z,1019.97
2022-09-05T03:06:03.665Z,1019.99
2022-09-05T03:07:03.667Z,1020.01
2022-09-05T03:08:03.699Z,1020.02
2022-09-05T03:09:14.867Z,1020.00
2022-09-05T03:10:03.677Z,1019.94
2022-09-05T03:11:03.687Z,1019.98
2022-09-05T03:12:27.144Z,1019.97
2022-09-05T03:13:03.701Z,1019.96
2022-09-05T03:14:03.696Z,1019.93
2022-09-05T03:15:03.695Z,1019.98
2022-09-05T03:16:04.814Z,1019.97
2022-09-05T03:17:03.718Z,1019.99
2022-09-05T03:18:20.351Z,1019.96
2022-09-05T03:19:03.718Z,1019.95
2022-09-05T03:20:03.706Z,1019.94
2022-09-05T03:21:09.620Z,1019.89
2022-09-05T03:22:03.711Z,1019.90
2022-09-05T03:23:03.705Z,1019.93
2022-09-05T03:24:03.732Z,1019.95
2022-09-05T03:25:03.720Z,1019.92
2022-09-05T03:26:03.715Z,1019.90
2022-09-05T03:27:03.720Z,1019.89
2022-09-05T03:28:03.734Z,1019.86
2022-09-05T03:29:03.724Z,1019.92
2022-09-05T03:30:03.745Z,1019.87
2022-09-05T03:31:03.775Z,1019.88
2022-09-05T03:32:03.723Z,1019.88
2022-09-05T03:33:03.745Z,1019.90
2022-09-05T03:34:03.729Z,1019.94
2022-09-05T03:35:08.257Z,1019.92
2022-09-05T03:36:03.736Z,1019.91
2022-09-05T03:37:03.747Z,1019.92
2022-09-05T03:38:03.742Z,1019.90
2022-09-05T03:39:03.757Z,1019.89
2022-09-05T03:40:16.001Z,1019.91
2022-09-05T03:41:03.767Z,1019.93
2022-09-05T03:42:03.749Z,1019.93
2022-09-05T03:43:03.748Z,1019.93
2022-09-05T03:44:03.760Z,1019.93
2022-09-05T03:45:03.765Z,1019.96
2022-09-05T03:46:03.840Z,1019.97
2022-09-05T03:47:03.779Z,1019.93
2022-09-05T03:48:14.893Z,1019.92
2022-09-05T03:49:10.499Z,1019.94
2022-09-05T03:50:03.773Z,1019.89
2022-09-05T03:57:05.495Z,1019.89
2022-09-05T03:57:12.145Z,1019.86
2022-09-05T03:57:17.487Z,1019.89
2022-09-05T03:57:20.865Z,1019.85
2022-09-05T03:57:25.335Z,1019.86
2022-09-05T03:57:25.775Z,1019.89
2022-09-05T03:57:27.998Z,1019.85
2022-09-05T03:58:08.829Z,1019.86
2022-09-05T03:59:04.213Z,1019.85
2022-09-05T04:00:03.793Z,1019.81
2022-09-05T04:01:18.924Z,1019.89
2022-09-05T04:05:51.612Z,1019.86
2022-09-05T04:08:07.276Z,1019.86
2022-09-05T04:08:11.018Z,1019.86
2022-09-05T04:08:19.114Z,1019.92
2022-09-05T04:08:24.511Z,1019.87
2022-09-05T04:08:25.939Z,1019.91
2022-09-05T04:08:30.973Z,1019.89
2022-09-05T04:09:03.986Z,1019.89
2022-09-05T04:10:04.028Z,1019.89
2022-09-05T04:11:03.902Z,1019.89
2022-09-05T04:12:03.819Z,1019.93
2022-09-05T04:13:03.807Z,1019.89
2022-09-05T04:14:03.822Z,1019.91
2022-09-05T04:15:03.860Z,1019.86
2022-09-05T04:16:03.818Z,1019.93
2022-09-05T04:17:03.893Z,1019.90
2022-09-05T04:18:04.617Z,1019.86
2022-09-05T04:19:03.836Z,1019.85
2022-09-05T04:20:03.826Z,1019.89
2022-09-05T04:21:03.843Z,1019.88
2022-09-05T04:22:03.828Z,1019.89
2022-09-05T04:23:03.845Z,1019.92
2022-09-05T04:24:03.842Z,1019.93
2022-09-05T04:25:03.862Z,1019.93
2022-09-05T04:26:11.394Z,1019.91
2022-09-05T04:27:03.848Z,1019.95
2022-09-05T04:28:03.847Z,1019.89
2022-09-05T04:29:03.857Z,1019.89
2022-09-05T04:30:07.032Z,1019.93
2022-09-05T04:31:03.871Z,1019.91
2022-09-05T04:32:18.816Z,1019.92
2022-09-05T04:33:03.849Z,1019.94
2022-09-05T04:34:03.858Z,1019.94
2022-09-05T04:35:03.852Z,1019.88
2022-09-05T04:36:06.882Z,1019.93
2022-09-05T04:37:03.864Z,1019.91
2022-09-05T04:38:03.876Z,1019.97
2022-09-05T04:39:03.871Z,1019.98
2022-09-05T04:40:03.918Z,1019.97
2022-09-05T04:41:03.876Z,1020.02
2022-09-05T04:42:03.880Z,1019.99
2022-09-05T04:43:03.881Z,1020.03
2022-09-05T04:44:04.094Z,1020.05
2022-09-05T04:45:03.869Z,1020.04
2022-09-05T04:46:03.923Z,1020.09
2022-09-05T04:47:03.880Z,1020.08
2022-09-05T04:48:03.893Z,1020.06
2022-09-05T04:49:03.887Z,1020.06
2022-09-05T04:50:03.887Z,1020.02
2022-09-05T04:51:03.889Z,1020.05
2022-09-05T04:52:03.895Z,1020.04
2022-09-05T04:53:03.888Z,1020.03
2022-09-05T04:54:03.901Z,1020.05
2022-09-05T04:55:03.899Z,1020.06
2022-09-05T04:56:03.892Z,1020.06
2022-09-05T04:57:11.756Z,1020.11
2022-09-05T04:58:03.919Z,1020.07
2022-09-05T05:01:08.298Z,1020.04
2022-09-05T05:06:00.245Z,1020.04
2022-09-05T05:06:03.932Z,1020.04
2022-09-05T05:06:08.725Z,1020.04
2022-09-05T05:06:09.581Z,1020.05
2022-09-05T05:06:11.901Z,1020.04
2022-09-05T05:06:16.112Z,1020.03
2022-09-05T05:06:30.132Z,1020.09
2022-09-05T05:07:07.884Z,1020.05
2022-09-05T05:08:04.062Z,1020.06
2022-09-05T05:09:03.946Z,1020.07
2022-09-05T05:11:47.900Z,1020.07
2022-09-05T05:14:49.856Z,1020.06
2022-09-05T05:17:57.987Z,1020.13
2022-09-05T05:17:58.022Z,1020.05
2022-09-05T05:18:01.917Z,1020.11
2022-09-05T05:18:08.627Z,1020.07
2022-09-05T05:18:09.765Z,1020.13
2022-09-05T05:18:10.379Z,1020.06
2022-09-05T05:18:42.258Z,1020.10
2022-09-05T05:19:17.011Z,1020.16
2022-09-05T05:20:40.368Z,1020.14
2022-09-05T05:21:04.021Z,1020.17
2022-09-05T05:22:03.940Z,1020.17
2022-09-05T05:23:07.892Z,1020.19
2022-09-05T05:24:03.952Z,1020.14
2022-09-05T05:25:03.952Z,1020.21
2022-09-05T05:26:03.983Z,1020.16
2022-09-05T05:27:03.961Z,1020.18
2022-09-05T05:28:14.973Z,1020.20
2022-09-05T05:29:03.969Z,1020.25
2022-09-05T05:30:03.960Z,1020.24
2022-09-05T05:31:03.981Z,1020.26
2022-09-05T05:32:04.068Z,1020.28
2022-09-05T05:33:03.966Z,1020.25
2022-09-05T05:34:09.749Z,1020.23
2022-09-05T05:35:04.000Z,1020.26
2022-09-05T05:36:03.976Z,1020.27
2022-09-05T05:37:03.975Z,1020.26
2022-09-05T05:38:03.980Z,1020.27
2022-09-05T05:39:03.980Z,1020.24
2022-09-05T05:40:04.084Z,1020.27
2022-09-05T05:41:03.992Z,1020.26
2022-09-05T05:42:20.280Z,1020.27
2022-09-05T05:43:03.991Z,1020.21
2022-09-05T05:44:03.988Z,1020.31
2022-09-05T05:45:03.986Z,1020.26
2022-09-05T05:46:04.042Z,1020.29
2022-09-05T05:47:03.997Z,1020.33
2022-09-05T05:48:04.008Z,1020.34
2022-09-05T05:49:03.995Z,1020.37
2022-09-05T05:50:04.013Z,1020.32
2022-09-05T05:51:03.989Z,1020.35
2022-09-05T05:52:04.000Z,1020.31
2022-09-05T05:53:04.002Z,1020.30
2022-09-05T05:54:04.006Z,1020.24
2022-09-05T05:55:36.239Z,1020.31
2022-09-05T05:56:04.011Z,1020.28
2022-09-05T05:57:14.833Z,1020.28
2022-09-05T05:58:04.006Z,1020.32
2022-09-05T05:59:04.018Z,1020.36
2022-09-05T06:00:04.018Z,1020.38
2022-09-05T06:01:04.018Z,1020.38
2022-09-05T06:02:04.128Z,1020.35
2022-09-05T06:03:24.891Z,1020.36
2022-09-05T06:04:04.056Z,1020.42
2022-09-05T06:05:04.411Z,1020.43
2022-09-05T06:06:04.031Z,1020.41
2022-09-05T06:07:04.039Z,1020.41
2022-09-05T06:12:24.701Z,1020.45
2022-09-05T06:12:31.735Z,1020.46
2022-09-05T06:14:26.155Z,1020.43
2022-09-05T06:14:52.607Z,1020.44
2022-09-05T06:14:55.800Z,1020.42
2022-09-05T06:14:56.699Z,1020.43
2022-09-05T06:15:02.503Z,1020.39
2022-09-05T06:15:10.473Z,1020.39
2022-09-05T06:16:06.348Z,1020.43
2022-09-05T06:17:04.341Z,1020.44
2022-09-05T06:18:04.047Z,1020.40
2022-09-05T06:19:04.060Z,1020.47
2022-09-05T06:20:45.849Z,1020.45
2022-09-05T06:22:08.491Z,1020.51
2022-09-05T06:22:13.198Z,1020.56
2022-09-05T06:23:04.077Z,1020.50
2022-09-05T06:24:04.071Z,1020.50
2022-09-05T06:25:07.690Z,1020.54
2022-09-05T06:26:04.066Z,1020.56
2022-09-05T06:27:04.071Z,1020.54
2022-09-05T06:28:18.395Z,1020.54
2022-09-05T06:29:04.093Z,1020.51
2022-09-05T06:30:04.090Z,1020.57
2022-09-05T06:31:19.790Z,1020.56
2022-09-05T06:32:04.128Z,1020.59
2022-09-05T06:33:04.159Z,1020.54
2022-09-05T06:34:04.099Z,1020.57
2022-09-05T06:35:04.105Z,1020.62
2022-09-05T06:36:04.433Z,1020.61
2022-09-05T06:37:04.228Z,1020.61
2022-09-05T06:38:04.089Z,1020.62
2022-09-05T06:39:04.118Z,1020.61
2022-09-05T06:40:04.184Z,1020.62
2022-09-05T06:41:04.106Z,1020.65
2022-09-05T06:42:04.123Z,1020.61
2022-09-05T06:43:04.111Z,1020.67
2022-09-05T06:44:04.124Z,1020.61
2022-09-05T06:45:15.915Z,1020.59
2022-09-05T06:46:04.289Z,1020.58
2022-09-05T06:47:22.729Z,1020.64
2022-09-05T06:48:04.135Z,1020.60
2022-09-05T06:49:33.488Z,1020.67
2022-09-05T06:50:05.681Z,1020.68
2022-09-05T06:51:07.806Z,1020.63
2022-09-05T06:52:09.747Z,1020.67
2022-09-05T06:53:07.110Z,1020.72
2022-09-05T06:54:04.149Z,1020.70
2022-09-05T06:55:04.150Z,1020.71
2022-09-05T06:56:04.185Z,1020.76
2022-09-05T06:57:04.150Z,1020.70
2022-09-05T06:58:04.154Z,1020.72
2022-09-05T06:59:08.998Z,1020.72
2022-09-05T07:00:04.169Z,1020.73
2022-09-05T07:01:04.263Z,1020.71
2022-09-05T07:02:04.305Z,1020.68
2022-09-05T07:03:04.242Z,1020.71
2022-09-05T07:04:53.648Z,1020.72
2022-09-05T07:05:38.009Z,1020.68
2022-09-05T07:06:04.178Z,1020.67
2022-09-05T07:07:06.243Z,1020.72
2022-09-05T07:08:13.614Z,1020.68
2022-09-05T07:09:04.193Z,1020.72
2022-09-05T07:10:16.936Z,1020.72
2022-09-05T07:11:11.495Z,1020.72
2022-09-05T07:12:04.194Z,1020.76
2022-09-05T07:13:04.211Z,1020.79
2022-09-05T07:14:04.226Z,1020.84
2022-09-05T07:15:08.658Z,1020.80
2022-09-05T07:16:04.290Z,1020.85
2022-09-05T07:17:04.242Z,1020.87
2022-09-05T07:18:10.542Z,1020.90
2022-09-05T07:19:04.238Z,1020.88
2022-09-05T07:20:04.281Z,1020.88
2022-09-05T07:21:16.841Z,1020.88
2022-09-05T07:22:04.228Z,1020.90
2022-09-05T07:23:47.819Z,1020.92
2022-09-05T07:24:09.254Z,1020.91
2022-09-05T07:25:04.248Z,1020.88
2022-09-05T07:26:04.367Z,1020.84
2022-09-05T07:27:04.251Z,1020.84
2022-09-05T07:28:28.704Z,1020.84
2022-09-05T07:29:04.251Z,1020.90
2022-09-05T07:30:04.313Z,1020.87
2022-09-05T07:31:04.338Z,1020.89
2022-09-05T07:32:04.333Z,1020.96
2022-09-05T07:33:04.280Z,1020.87
2022-09-05T07:34:04.289Z,1020.82
2022-09-05T07:35:04.474Z,1020.83
2022-09-05T07:36:04.283Z,1020.82
2022-09-05T07:37:14.932Z,1020.83
2022-09-05T07:38:04.315Z,1020.81
2022-09-05T07:39:27.618Z,1020.85
2022-09-05T07:40:24.678Z,1020.81
2022-09-05T07:41:04.316Z,1020.82
2022-09-05T07:42:04.310Z,1020.85
2022-09-05T07:43:09.068Z,1020.86
2022-09-05T07:44:04.325Z,1020.93
2022-09-05T07:45:04.319Z,1020.93
2022-09-05T07:46:04.388Z,1020.91
2022-09-05T07:47:04.343Z,1020.96
2022-09-05T07:48:04.353Z,1020.93
2022-09-05T07:49:04.342Z,1020.93
2022-09-05T07:51:54.814Z,1020.90
2022-09-05T07:56:17.169Z,1020.97
2022-09-05T07:56:54.147Z,1020.97
2022-09-05T07:56:58.898Z,1020.91
2022-09-05T07:56:59.386Z,1020.90
2022-09-05T07:57:05.170Z,1020.93
2022-09-05T07:57:08.068Z,1020.85
2022-09-05T07:58:05.985Z,1020.87
2022-09-05T07:59:04.380Z,1020.88
2022-09-05T08:00:04.385Z,1020.82
2022-09-05T08:01:04.465Z,1020.92
2022-09-05T08:02:04.392Z,1020.87
2022-09-05T08:03:04.418Z,1020.87
2022-09-05T08:04:05.896Z,1020.87
2022-09-05T08:05:04.533Z,1020.85
2022-09-05T08:06:04.409Z,1020.88
2022-09-05T08:07:49.013Z,1020.87
2022-09-05T08:08:04.426Z,1020.85
2022-09-05T08:09:21.295Z,1020.93
2022-09-05T08:10:08.008Z,1020.87
2022-09-05T08:11:25.432Z,1020.88
2022-09-05T08:12:09.962Z,1020.92
2022-09-05T08:13:24.400Z,1020.92
2022-09-05T08:14:44.794Z,1020.90
2022-09-05T08:15:04.445Z,1020.92
2022-09-05T08:16:10.635Z,1020.98
2022-09-05T08:17:04.538Z,1020.93
2022-09-05T08:18:04.484Z,1020.99
2022-09-05T08:19:04.471Z,1020.94
2022-09-05T08:20:08.844Z,1020.92
2022-09-05T08:21:04.479Z,1020.94
2022-09-05T08:22:04.503Z,1020.85
2022-09-05T08:23:04.508Z,1020.91
2022-09-05T08:24:05.597Z,1020.88
2022-09-05T08:25:04.503Z,1020.91
2022-09-05T08:26:04.501Z,1020.91
2022-09-05T08:27:04.508Z,1020.87
2022-09-05T08:28:04.519Z,1020.87
2022-09-05T08:29:04.520Z,1020.83
2022-09-05T08:30:26.183Z,1020.82
2022-09-05T08:31:04.611Z,1020.80
2022-09-05T08:32:04.538Z,1020.79
2022-09-05T08:33:11.236Z,1020.77
2022-09-05T08:34:04.553Z,1020.75
2022-09-05T08:35:04.561Z,1020.80
2022-09-05T08:36:04.565Z,1020.75
2022-09-05T08:37:04.563Z,1020.76
2022-09-05T08:38:04.578Z,1020.77
2022-09-05T08:39:04.564Z,1020.81
2022-09-05T08:40:11.299Z,1020.73
2022-09-05T08:41:04.595Z,1020.72
2022-09-05T08:42:05.992Z,1020.66
2022-09-05T08:46:25.480Z,1020.63
2022-09-05T08:46:40.815Z,1020.66
2022-09-05T08:46:42.800Z,1020.60
2022-09-05T08:46:47.586Z,1020.64
2022-09-05T08:47:04.691Z,1020.62
2022-09-05T08:48:13.017Z,1020.64
2022-09-05T08:49:15.517Z,1020.63
2022-09-05T08:50:04.621Z,1020.63
2022-09-05T08:51:13.064Z,1020.63
2022-09-05T08:52:13.558Z,1020.59
2022-09-05T08:53:26.830Z,1020.60
2022-09-05T08:54:13.110Z,1020.58
2022-09-05T08:55:13.128Z,1020.50
2022-09-05T08:56:04.629Z,1020.60
2022-09-05T08:57:04.657Z,1020.55
2022-09-05T08:58:13.205Z,1020.57
2022-09-05T08:59:32.279Z,1020.61
2022-09-05T09:00:20.320Z,1020.56
2022-09-05T09:01:12.746Z,1020.46
2022-09-05T09:02:48.054Z,1020.57
2022-09-05T09:03:12.831Z,1020.50
2022-09-05T09:04:04.709Z,1020.55
2022-09-05T09:05:04.697Z,1020.55
2022-09-05T09:06:14.180Z,1020.56
2022-09-05T09:07:47.021Z,1020.50
2022-09-05T09:08:04.690Z,1020.51
2022-09-05T09:09:05.730Z,1020.44
2022-09-05T09:10:04.725Z,1020.40
2022-09-05T09:11:05.032Z,1020.43
2022-09-05T09:12:04.714Z,1020.39
2022-09-05T09:13:04.699Z,1020.41
2022-09-05T09:14:04.724Z,1020.43
2022-09-05T09:15:04.706Z,1020.38
2022-09-05T09:16:04.813Z,1020.48
2022-09-05T09:17:04.716Z,1020.46
2022-09-05T09:18:06.412Z,1020.44
2022-09-05T09:19:04.770Z,1020.44
2022-09-05T09:20:04.730Z,1020.51
2022-09-05T09:21:04.754Z,1020.49
2022-09-05T09:22:04.773Z,1020.48
2022-09-05T09:23:04.744Z,1020.45
2022-09-05T09:24:04.753Z,1020.47
2022-09-05T09:25:15.082Z,1020.53
2022-09-05T09:26:04.780Z,1020.44
2022-09-05T09:27:04.788Z,1020.47
2022-09-05T09:28:49.796Z,1020.46
2022-09-05T09:29:04.796Z,1020.52
2022-09-05T09:30:04.794Z,1020.50
2022-09-05T09:31:04.811Z,1020.47
2022-09-05T09:32:04.817Z,1020.53
2022-09-05T09:33:04.802Z,1020.52
2022-09-05T09:34:04.810Z,1020.54
2022-09-05T09:35:06.191Z,1020.52
2022-09-05T09:36:07.983Z,1020.49
2022-09-05T09:37:04.810Z,1020.49
2022-09-05T09:38:04.814Z,1020.47
2022-09-05T09:39:11.911Z,1020.52
2022-09-05T09:40:04.875Z,1020.54
2022-09-05T09:41:04.848Z,1020.43
2022-09-05T09:42:04.864Z,1020.43
2022-09-05T09:43:07.106Z,1020.40
2022-09-05T09:44:04.855Z,1020.41
2022-09-05T09:45:22.800Z,1020.47
2022-09-05T09:46:04.968Z,1020.43
2022-09-05T09:47:04.876Z,1020.46
2022-09-05T09:48:04.886Z,1020.42
2022-09-05T09:49:04.881Z,1020.47
2022-09-05T09:50:04.943Z,1020.46
2022-09-05T09:51:04.913Z,1020.54
2022-09-05T09:52:04.906Z,1020.55
2022-09-05T09:53:04.905Z,1020.55
2022-09-05T09:54:04.909Z,1020.51
2022-09-05T09:55:04.926Z,1020.53
2022-09-05T09:56:06.990Z,1020.49
2022-09-05T09:57:04.946Z,1020.56
2022-09-05T09:58:04.951Z,1020.60
2022-09-05T09:59:04.963Z,1020.58
2022-09-05T10:00:04.977Z,1020.48
2022-09-05T10:01:35.175Z,1020.53
2022-09-05T10:02:32.790Z,1020.61
2022-09-05T10:07:54.537Z,1020.59
2022-09-05T10:10:35.058Z,1020.58
2022-09-05T10:10:36.375Z,1020.59
2022-09-05T10:10:39.095Z,1020.59
2022-09-05T10:10:44.109Z,1020.61
2022-09-05T10:10:47.956Z,1020.66
2022-09-05T10:10:57.756Z,1020.63
2022-09-05T10:11:09.344Z,1020.58
2022-09-05T10:11:34.048Z,1020.58
2022-09-05T10:12:05.467Z,1020.58
2022-09-05T10:13:08.289Z,1020.55
2022-09-05T10:14:05.112Z,1020.57
2022-09-05T10:15:19.102Z,1020.51
2022-09-05T10:16:06.171Z,1020.47
2022-09-05T10:17:05.132Z,1020.47
2022-09-05T10:18:05.149Z,1020.54
2022-09-05T10:19:05.146Z,1020.51
2022-09-05T10:20:09.040Z,1020.54
2022-09-05T10:21:16.631Z,1020.63
2022-09-05T10:23:05.170Z,1020.49
2022-09-05T10:24:05.201Z,1020.54
2022-09-05T10:25:18.855Z,1020.52
2022-09-05T10:26:05.219Z,1020.46
2022-09-05T10:27:05.234Z,1020.46
2022-09-05T10:28:05.235Z,1020.54
2022-09-05T10:29:33.260Z,1020.53
2022-09-05T10:30:05.268Z,1020.56
2022-09-05T10:32:23.214Z,1020.45
2022-09-05T10:35:10.554Z,1020.44
2022-09-05T10:35:13.523Z,1020.45
2022-09-05T10:35:21.121Z,1020.43
2022-09-05T10:35:22.836Z,1020.44
2022-09-05T10:36:05.397Z,1020.45
2022-09-05T10:37:05.448Z,1020.47
2022-09-05T10:38:10.280Z,1020.50
2022-09-05T10:39:05.381Z,1020.47
2022-09-05T10:40:05.438Z,1020.35
2022-09-05T10:41:21.884Z,1020.38
2022-09-05T10:42:05.437Z,1020.36
2022-09-05T10:43:05.448Z,1020.39
2022-09-05T10:44:05.463Z,1020.30
2022-09-05T10:45:05.470Z,1020.34
2022-09-05T10:46:05.529Z,1020.30
2022-09-05T10:47:05.547Z,1020.13
2022-09-05T10:48:13.284Z,1020.31
2022-09-05T10:49:05.531Z,1020.23
2022-09-05T10:50:05.576Z,1020.15
2022-09-05T10:51:05.540Z,1020.25
2022-09-05T10:52:19.025Z,1020.22
2022-09-05T10:53:05.568Z,1020.26
2022-09-05T10:54:05.610Z,1020.32
2022-09-05T10:55:13.797Z,1020.43
2022-09-05T10:56:05.628Z,1020.27
2022-09-05T10:57:05.632Z,1020.18
2022-09-05T10:58:05.659Z,1020.24
2022-09-05T11:02:19.131Z,1020.19
2022-09-05T11:02:22.751Z,1020.12
2022-09-05T11:02:24.768Z,1020.22
2022-09-05T11:02:30.353Z,1020.13
2022-09-05T11:03:05.783Z,1020.12
2022-09-05T11:04:05.879Z,1020.11
2022-09-05T11:05:05.815Z,1020.04
2022-09-05T11:06:09.514Z,1020.07
2022-09-05T11:07:05.793Z,1020.08
2022-09-05T11:08:05.809Z,1020.11
2022-09-05T11:09:05.831Z,1020.08
2022-09-05T11:10:05.852Z,1020.01
2022-09-05T11:11:05.858Z,1020.02
2022-09-05T11:12:05.878Z,1020.00
2022-09-05T11:13:05.892Z,1019.94
2022-09-05T11:14:05.924Z,1019.96
2022-09-05T11:15:05.927Z,1019.98
2022-09-05T11:16:08.274Z,1019.91
2022-09-05T11:17:05.972Z,1019.99
2022-09-05T11:18:05.973Z,1019.91
2022-09-05T11:19:05.994Z,1019.94
2022-09-05T11:20:06.018Z,1019.89
2022-09-05T11:21:06.042Z,1019.89
2022-09-05T11:22:22.200Z,1019.91
2022-09-05T11:23:06.057Z,1019.82
2022-09-05T11:24:06.064Z,1020.01
2022-09-05T11:25:06.093Z,1019.95
2022-09-05T11:26:06.118Z,1019.97
2022-09-05T11:27:24.545Z,1019.92
2022-09-05T11:28:06.120Z,1019.88
2022-09-05T11:29:06.155Z,1019.89
2022-09-05T11:30:06.236Z,1019.89
2022-09-05T11:31:06.249Z,1019.84
2022-09-05T11:34:32.800Z,1019.84
2022-09-05T11:39:26.309Z,1019.88
2022-09-05T11:39:50.204Z,1019.84
2022-09-05T11:39:53.633Z,1019.85
2022-09-05T11:39:56.263Z,1019.82
2022-09-05T11:39:59.337Z,1019.77
2022-09-05T11:39:59.730Z,1019.86
2022-09-05T11:40:09.002Z,1019.80
2022-09-05T11:40:29.182Z,1019.70
2022-09-05T11:41:11.893Z,1019.71
2022-09-05T11:42:06.366Z,1019.74
2022-09-05T11:43:06.328Z,1019.75
2022-09-05T11:44:26.328Z,1019.77
2022-09-05T11:45:06.353Z,1019.74
2022-09-05T11:46:06.404Z,1019.75
2022-09-05T11:47:28.097Z,1019.75
2022-09-05T11:48:06.408Z,1019.78
2022-09-05T11:49:06.867Z,1019.72
2022-09-05T11:50:09.126Z,1019.69
2022-09-05T11:51:06.414Z,1019.62
2022-09-05T11:52:06.450Z,1019.61
2022-09-05T11:53:06.467Z,1019.61
2022-09-05T11:54:06.454Z,1019.61
2022-09-05T11:55:06.466Z,1019.69
2022-09-05T11:56:06.486Z,1019.63
2022-09-05T11:57:32.093Z,1019.56
2022-09-05T11:58:43.947Z,1019.55
2022-09-05T11:59:06.509Z,1019.58
2022-09-05T12:00:30.740Z,1019.57
2022-09-05T12:01:41.336Z,1019.59
2022-09-05T12:02:17.032Z,1019.61
2022-09-05T12:03:06.539Z,1019.63
2022-09-05T12:04:09.985Z,1019.61
2022-09-05T12:05:49.441Z,1019.55
2022-09-05T12:06:06.648Z,1019.63
2022-09-05T12:07:15.459Z,1019.56
2022-09-05T12:08:08.172Z,1019.54